<?xml version="1.0" encoding="UTF-8" standalone="no" ?>
<gpx xmlns="http://www.topografix.com/GPX/1/1" xmlns:xsi="http://www.w3.org/2001/XMLSchema-instance" xsi:schemaLocation="http://www.topografix.com/GPX/1/1 http://www.topografix.com/GPX/1/1/gpx.xsd" version="1.1" creator="VisuGPX - https://www.visugpx.com">
  <metadata>
    <name>46 - Porte-du-Quercy : boucles au départ du Domaine des Terres Blanches</name>
    <desc><![CDATA[Cet itinéraire fait partie de la collection de EquiLiberté : www.equiliberte.org Circuit NON ACCESSIBLE aux attelages
Ces circuits ont été élaborés par le gîte équestre Domaine des Terres Blanches https://domainedesterresblanches.com/]]></desc>
  </metadata>
  <wpt lat="44.41706" lon="1.15834">
    <ele>172</ele>
    <name><![CDATA[Domaine des Terres Blanches]]></name>
    <type><![CDATA[hotel]]></type>
  </wpt>
  <trk>
    <name><![CDATA[46 - Porte-du-Quercy : Les Terres Blanches : boucle nord - grande 21 km]]></name>
    <trkseg>
      <trkpt lat="44.416" lon="1.16087">
        <ele>186</ele>
        <time>2021-01-20T18:29:12Z</time>
      </trkpt>
      <trkpt lat="44.41628" lon="1.15838">
        <ele>175</ele>
        <time>2021-01-20T18:31:36Z</time>
      </trkpt>
      <trkpt lat="44.41623" lon="1.15881">
        <ele>176</ele>
        <time>2021-01-20T18:32:01Z</time>
      </trkpt>
      <trkpt lat="44.41631" lon="1.15723">
        <ele>178</ele>
        <time>2021-01-20T18:33:32Z</time>
      </trkpt>
      <trkpt lat="44.4161" lon="1.15513">
        <ele>185</ele>
        <time>2021-01-20T18:35:33Z</time>
      </trkpt>
      <trkpt lat="44.41582" lon="1.15441">
        <ele>190</ele>
        <time>2021-01-20T18:36:20Z</time>
      </trkpt>
      <trkpt lat="44.41603" lon="1.15382">
        <ele>184</ele>
        <time>2021-01-20T18:36:58Z</time>
      </trkpt>
      <trkpt lat="44.41636" lon="1.1535">
        <ele>180</ele>
        <time>2021-01-20T18:37:30Z</time>
      </trkpt>
      <trkpt lat="44.41752" lon="1.15297">
        <ele>168</ele>
        <time>2021-01-20T18:39:07Z</time>
      </trkpt>
      <trkpt lat="44.4193" lon="1.15004">
        <ele>154</ele>
        <time>2021-01-20T18:42:47Z</time>
      </trkpt>
      <trkpt lat="44.41953" lon="1.14853">
        <ele>154</ele>
        <time>2021-01-20T18:44:16Z</time>
      </trkpt>
      <trkpt lat="44.41984" lon="1.14723">
        <ele>152</ele>
        <time>2021-01-20T18:45:34Z</time>
      </trkpt>
      <trkpt lat="44.42159" lon="1.1473">
        <ele>147</ele>
        <time>2021-01-20T18:47:54Z</time>
      </trkpt>
      <trkpt lat="44.42255" lon="1.14626">
        <ele>148</ele>
        <time>2021-01-20T18:49:31Z</time>
      </trkpt>
      <trkpt lat="44.4244" lon="1.14553">
        <ele>165</ele>
        <time>2021-01-20T18:52:05Z</time>
      </trkpt>
      <trkpt lat="44.42693" lon="1.14423">
        <ele>186</ele>
        <time>2021-01-20T18:55:41Z</time>
      </trkpt>
      <trkpt lat="44.42847" lon="1.1436">
        <ele>192</ele>
        <time>2021-01-20T18:57:50Z</time>
      </trkpt>
      <trkpt lat="44.43012" lon="1.14214">
        <ele>194</ele>
        <time>2021-01-20T19:00:26Z</time>
      </trkpt>
      <trkpt lat="44.4309" lon="1.14205">
        <ele>197</ele>
        <time>2021-01-20T19:01:28Z</time>
      </trkpt>
      <trkpt lat="44.43149" lon="1.14091">
        <ele>192</ele>
        <time>2021-01-20T19:02:49Z</time>
      </trkpt>
      <trkpt lat="44.43249" lon="1.13987">
        <ele>187</ele>
        <time>2021-01-20T19:04:29Z</time>
      </trkpt>
      <trkpt lat="44.43345" lon="1.1398">
        <ele>182</ele>
        <time>2021-01-20T19:05:46Z</time>
      </trkpt>
      <trkpt lat="44.43448" lon="1.1394">
        <ele>176</ele>
        <time>2021-01-20T19:07:11Z</time>
      </trkpt>
      <trkpt lat="44.43468" lon="1.13875">
        <ele>173</ele>
        <time>2021-01-20T19:07:52Z</time>
      </trkpt>
      <trkpt lat="44.43486" lon="1.13738">
        <ele>160</ele>
        <time>2021-01-20T19:09:11Z</time>
      </trkpt>
      <trkpt lat="44.43517" lon="1.1368">
        <ele>157</ele>
        <time>2021-01-20T19:09:53Z</time>
      </trkpt>
      <trkpt lat="44.43587" lon="1.13633">
        <ele>155</ele>
        <time>2021-01-20T19:10:55Z</time>
      </trkpt>
      <trkpt lat="44.43589" lon="1.1359">
        <ele>146</ele>
        <time>2021-01-20T19:11:20Z</time>
      </trkpt>
      <trkpt lat="44.4357" lon="1.13589">
        <ele>145</ele>
        <time>2021-01-20T19:11:35Z</time>
      </trkpt>
      <trkpt lat="44.43554" lon="1.13594">
        <ele>145</ele>
        <time>2021-01-20T19:11:48Z</time>
      </trkpt>
      <trkpt lat="44.43527" lon="1.13602">
        <ele>144</ele>
        <time>2021-01-20T19:12:10Z</time>
      </trkpt>
      <trkpt lat="44.43508" lon="1.13602">
        <ele>142</ele>
        <time>2021-01-20T19:12:25Z</time>
      </trkpt>
      <trkpt lat="44.43496" lon="1.13591">
        <ele>139</ele>
        <time>2021-01-20T19:12:37Z</time>
      </trkpt>
      <trkpt lat="44.43491" lon="1.13555">
        <ele>135</ele>
        <time>2021-01-20T19:12:58Z</time>
      </trkpt>
      <trkpt lat="44.4349" lon="1.13494">
        <ele>130</ele>
        <time>2021-01-20T19:13:33Z</time>
      </trkpt>
      <trkpt lat="44.43501" lon="1.1341">
        <ele>130</ele>
        <time>2021-01-20T19:14:21Z</time>
      </trkpt>
      <trkpt lat="44.43522" lon="1.13346">
        <ele>132</ele>
        <time>2021-01-20T19:15:02Z</time>
      </trkpt>
      <trkpt lat="44.43545" lon="1.13299">
        <ele>137</ele>
        <time>2021-01-20T19:15:34Z</time>
      </trkpt>
      <trkpt lat="44.43598" lon="1.13326">
        <ele>134</ele>
        <time>2021-01-20T19:16:19Z</time>
      </trkpt>
      <trkpt lat="44.43659" lon="1.13347">
        <ele>135</ele>
        <time>2021-01-20T19:17:10Z</time>
      </trkpt>
      <trkpt lat="44.43719" lon="1.13353">
        <ele>136</ele>
        <time>2021-01-20T19:17:58Z</time>
      </trkpt>
      <trkpt lat="44.43766" lon="1.1336">
        <ele>136</ele>
        <time>2021-01-20T19:18:36Z</time>
      </trkpt>
      <trkpt lat="44.4383" lon="1.13376">
        <ele>133</ele>
        <time>2021-01-20T19:19:28Z</time>
      </trkpt>
      <trkpt lat="44.43856" lon="1.13409">
        <ele>133</ele>
        <time>2021-01-20T19:19:56Z</time>
      </trkpt>
      <trkpt lat="44.43873" lon="1.13439">
        <ele>134</ele>
        <time>2021-01-20T19:20:18Z</time>
      </trkpt>
      <trkpt lat="44.4389" lon="1.13461">
        <ele>135</ele>
        <time>2021-01-20T19:20:36Z</time>
      </trkpt>
      <trkpt lat="44.43884" lon="1.13491">
        <ele>132</ele>
        <time>2021-01-20T19:20:54Z</time>
      </trkpt>
      <trkpt lat="44.43864" lon="1.13529">
        <ele>129</ele>
        <time>2021-01-20T19:21:21Z</time>
      </trkpt>
      <trkpt lat="44.43846" lon="1.13566">
        <ele>127</ele>
        <time>2021-01-20T19:21:47Z</time>
      </trkpt>
      <trkpt lat="44.43833" lon="1.13588">
        <ele>127</ele>
        <time>2021-01-20T19:22:03Z</time>
      </trkpt>
      <trkpt lat="44.4384" lon="1.13639">
        <ele>129</ele>
        <time>2021-01-20T19:22:33Z</time>
      </trkpt>
      <trkpt lat="44.43849" lon="1.13655">
        <ele>129</ele>
        <time>2021-01-20T19:22:44Z</time>
      </trkpt>
      <trkpt lat="44.43859" lon="1.13681">
        <ele>130</ele>
        <time>2021-01-20T19:23:01Z</time>
      </trkpt>
      <trkpt lat="44.43887" lon="1.1372">
        <ele>129</ele>
        <time>2021-01-20T19:23:33Z</time>
      </trkpt>
      <trkpt lat="44.43908" lon="1.13773">
        <ele>129</ele>
        <time>2021-01-20T19:24:07Z</time>
      </trkpt>
      <trkpt lat="44.43944" lon="1.13852">
        <ele>129</ele>
        <time>2021-01-20T19:25:01Z</time>
      </trkpt>
      <trkpt lat="44.43943" lon="1.13921">
        <ele>132</ele>
        <time>2021-01-20T19:25:40Z</time>
      </trkpt>
      <trkpt lat="44.43924" lon="1.13972">
        <ele>139</ele>
        <time>2021-01-20T19:26:13Z</time>
      </trkpt>
      <trkpt lat="44.43987" lon="1.14031">
        <ele>145</ele>
        <time>2021-01-20T19:27:14Z</time>
      </trkpt>
      <trkpt lat="44.44018" lon="1.14094">
        <ele>148</ele>
        <time>2021-01-20T19:27:58Z</time>
      </trkpt>
      <trkpt lat="44.44028" lon="1.14153">
        <ele>149</ele>
        <time>2021-01-20T19:28:32Z</time>
      </trkpt>
      <trkpt lat="44.44019" lon="1.1422">
        <ele>154</ele>
        <time>2021-01-20T19:29:11Z</time>
      </trkpt>
      <trkpt lat="44.44018" lon="1.14293">
        <ele>156</ele>
        <time>2021-01-20T19:29:53Z</time>
      </trkpt>
      <trkpt lat="44.4402" lon="1.14342">
        <ele>156</ele>
        <time>2021-01-20T19:30:21Z</time>
      </trkpt>
      <trkpt lat="44.44041" lon="1.14388">
        <ele>156</ele>
        <time>2021-01-20T19:30:52Z</time>
      </trkpt>
      <trkpt lat="44.44032" lon="1.14468">
        <ele>162</ele>
        <time>2021-01-20T19:31:39Z</time>
      </trkpt>
      <trkpt lat="44.44014" lon="1.14517">
        <ele>165</ele>
        <time>2021-01-20T19:32:10Z</time>
      </trkpt>
      <trkpt lat="44.44008" lon="1.14566">
        <ele>167</ele>
        <time>2021-01-20T19:32:39Z</time>
      </trkpt>
      <trkpt lat="44.44018" lon="1.1464">
        <ele>165</ele>
        <time>2021-01-20T19:33:22Z</time>
      </trkpt>
      <trkpt lat="44.44019" lon="1.14698">
        <ele>165</ele>
        <time>2021-01-20T19:33:55Z</time>
      </trkpt>
      <trkpt lat="44.4402" lon="1.14702">
        <ele>165</ele>
        <time>2021-01-20T19:33:57Z</time>
      </trkpt>
      <trkpt lat="44.44003" lon="1.14779">
        <ele>170</ele>
        <time>2021-01-20T19:34:43Z</time>
      </trkpt>
      <trkpt lat="44.4399" lon="1.14852">
        <ele>178</ele>
        <time>2021-01-20T19:35:26Z</time>
      </trkpt>
      <trkpt lat="44.43971" lon="1.14952">
        <ele>185</ele>
        <time>2021-01-20T19:36:26Z</time>
      </trkpt>
      <trkpt lat="44.4406" lon="1.14983">
        <ele>192</ele>
        <time>2021-01-20T19:37:39Z</time>
      </trkpt>
      <trkpt lat="44.44151" lon="1.15046">
        <ele>208</ele>
        <time>2021-01-20T19:39:00Z</time>
      </trkpt>
      <trkpt lat="44.44229" lon="1.15128">
        <ele>224</ele>
        <time>2021-01-20T19:40:18Z</time>
      </trkpt>
      <trkpt lat="44.44244" lon="1.15286">
        <ele>215</ele>
        <time>2021-01-20T19:41:49Z</time>
      </trkpt>
      <trkpt lat="44.44263" lon="1.15471">
        <ele>202</ele>
        <time>2021-01-20T19:43:36Z</time>
      </trkpt>
      <trkpt lat="44.44289" lon="1.15711">
        <ele>224</ele>
        <time>2021-01-20T19:45:55Z</time>
      </trkpt>
      <trkpt lat="44.44287" lon="1.15917">
        <ele>244</ele>
        <time>2021-01-20T19:47:53Z</time>
      </trkpt>
      <trkpt lat="44.4425" lon="1.16084">
        <ele>246</ele>
        <time>2021-01-20T19:49:33Z</time>
      </trkpt>
      <trkpt lat="44.44263" lon="1.16272">
        <ele>239</ele>
        <time>2021-01-20T19:51:21Z</time>
      </trkpt>
      <trkpt lat="44.44268" lon="1.16467">
        <ele>255</ele>
        <time>2021-01-20T19:53:12Z</time>
      </trkpt>
      <trkpt lat="44.44289" lon="1.16621">
        <ele>260</ele>
        <time>2021-01-20T19:54:42Z</time>
      </trkpt>
      <trkpt lat="44.44302" lon="1.16679">
        <ele>260</ele>
        <time>2021-01-20T19:55:17Z</time>
      </trkpt>
      <trkpt lat="44.44313" lon="1.16776">
        <ele>258</ele>
        <time>2021-01-20T19:56:13Z</time>
      </trkpt>
      <trkpt lat="44.44391" lon="1.16694">
        <ele>252</ele>
        <time>2021-01-20T19:57:31Z</time>
      </trkpt>
      <trkpt lat="44.44465" lon="1.16643">
        <ele>244</ele>
        <time>2021-01-20T19:58:37Z</time>
      </trkpt>
      <trkpt lat="44.44549" lon="1.16646">
        <ele>232</ele>
        <time>2021-01-20T19:59:44Z</time>
      </trkpt>
      <trkpt lat="44.44619" lon="1.16646">
        <ele>226</ele>
        <time>2021-01-20T20:00:40Z</time>
      </trkpt>
      <trkpt lat="44.44599" lon="1.16737">
        <ele>222</ele>
        <time>2021-01-20T20:01:35Z</time>
      </trkpt>
      <trkpt lat="44.44621" lon="1.1684">
        <ele>218</ele>
        <time>2021-01-20T20:02:36Z</time>
      </trkpt>
      <trkpt lat="44.44636" lon="1.16907">
        <ele>220</ele>
        <time>2021-01-20T20:03:16Z</time>
      </trkpt>
      <trkpt lat="44.44699" lon="1.17004">
        <ele>226</ele>
        <time>2021-01-20T20:04:31Z</time>
      </trkpt>
      <trkpt lat="44.44703" lon="1.17101">
        <ele>234</ele>
        <time>2021-01-20T20:05:27Z</time>
      </trkpt>
      <trkpt lat="44.44701" lon="1.17158">
        <ele>236</ele>
        <time>2021-01-20T20:05:59Z</time>
      </trkpt>
      <trkpt lat="44.44807" lon="1.17093">
        <ele>229</ele>
        <time>2021-01-20T20:07:32Z</time>
      </trkpt>
      <trkpt lat="44.44972" lon="1.17061">
        <ele>227</ele>
        <time>2021-01-20T20:09:45Z</time>
      </trkpt>
      <trkpt lat="44.45037" lon="1.17051">
        <ele>226</ele>
        <time>2021-01-20T20:10:38Z</time>
      </trkpt>
      <trkpt lat="44.45058" lon="1.17007">
        <ele>225</ele>
        <time>2021-01-20T20:11:08Z</time>
      </trkpt>
      <trkpt lat="44.45201" lon="1.16986">
        <ele>225</ele>
        <time>2021-01-20T20:13:03Z</time>
      </trkpt>
      <trkpt lat="44.45355" lon="1.16843">
        <ele>233</ele>
        <time>2021-01-20T20:15:31Z</time>
      </trkpt>
      <trkpt lat="44.45494" lon="1.16743">
        <ele>233</ele>
        <time>2021-01-20T20:17:36Z</time>
      </trkpt>
      <trkpt lat="44.45641" lon="1.16618">
        <ele>218</ele>
        <time>2021-01-20T20:19:54Z</time>
      </trkpt>
      <trkpt lat="44.45877" lon="1.16461">
        <ele>216</ele>
        <time>2021-01-20T20:23:23Z</time>
      </trkpt>
      <trkpt lat="44.45996" lon="1.16354">
        <ele>215</ele>
        <time>2021-01-20T20:25:16Z</time>
      </trkpt>
      <trkpt lat="44.46211" lon="1.16275">
        <ele>214</ele>
        <time>2021-01-20T20:28:14Z</time>
      </trkpt>
      <trkpt lat="44.46248" lon="1.16184">
        <ele>215</ele>
        <time>2021-01-20T20:29:14Z</time>
      </trkpt>
      <trkpt lat="44.46206" lon="1.15933">
        <ele>198</ele>
        <time>2021-01-20T20:31:41Z</time>
      </trkpt>
      <trkpt lat="44.4617" lon="1.1582">
        <ele>196</ele>
        <time>2021-01-20T20:32:52Z</time>
      </trkpt>
      <trkpt lat="44.46176" lon="1.15687">
        <ele>191</ele>
        <time>2021-01-20T20:34:08Z</time>
      </trkpt>
      <trkpt lat="44.46222" lon="1.15547">
        <ele>187</ele>
        <time>2021-01-20T20:35:36Z</time>
      </trkpt>
      <trkpt lat="44.46304" lon="1.15474">
        <ele>178</ele>
        <time>2021-01-20T20:36:54Z</time>
      </trkpt>
      <trkpt lat="44.46304" lon="1.15332">
        <ele>167</ele>
        <time>2021-01-20T20:38:15Z</time>
      </trkpt>
      <trkpt lat="44.46317" lon="1.15241">
        <ele>151</ele>
        <time>2021-01-20T20:39:08Z</time>
      </trkpt>
      <trkpt lat="44.46287" lon="1.15147">
        <ele>141</ele>
        <time>2021-01-20T20:40:07Z</time>
      </trkpt>
      <trkpt lat="44.46287" lon="1.15049">
        <ele>122</ele>
        <time>2021-01-20T20:41:03Z</time>
      </trkpt>
      <trkpt lat="44.46254" lon="1.14968">
        <ele>112</ele>
        <time>2021-01-20T20:41:56Z</time>
      </trkpt>
      <trkpt lat="44.46217" lon="1.14916">
        <ele>104</ele>
        <time>2021-01-20T20:42:38Z</time>
      </trkpt>
      <trkpt lat="44.46224" lon="1.14858">
        <ele>101</ele>
        <time>2021-01-20T20:43:12Z</time>
      </trkpt>
      <trkpt lat="44.46243" lon="1.14798">
        <ele>100</ele>
        <time>2021-01-20T20:43:50Z</time>
      </trkpt>
      <trkpt lat="44.46271" lon="1.14734">
        <ele>105</ele>
        <time>2021-01-20T20:44:32Z</time>
      </trkpt>
      <trkpt lat="44.46267" lon="1.14675">
        <ele>111</ele>
        <time>2021-01-20T20:45:06Z</time>
      </trkpt>
      <trkpt lat="44.46254" lon="1.14654">
        <ele>112</ele>
        <time>2021-01-20T20:45:22Z</time>
      </trkpt>
      <trkpt lat="44.46236" lon="1.14644">
        <ele>115</ele>
        <time>2021-01-20T20:45:38Z</time>
      </trkpt>
      <trkpt lat="44.46188" lon="1.14631">
        <ele>126</ele>
        <time>2021-01-20T20:46:17Z</time>
      </trkpt>
      <trkpt lat="44.4614" lon="1.1462">
        <ele>136</ele>
        <time>2021-01-20T20:46:56Z</time>
      </trkpt>
      <trkpt lat="44.46102" lon="1.14615">
        <ele>142</ele>
        <time>2021-01-20T20:47:26Z</time>
      </trkpt>
      <trkpt lat="44.46065" lon="1.14604">
        <ele>147</ele>
        <time>2021-01-20T20:47:57Z</time>
      </trkpt>
      <trkpt lat="44.4604" lon="1.14592">
        <ele>151</ele>
        <time>2021-01-20T20:48:18Z</time>
      </trkpt>
      <trkpt lat="44.46009" lon="1.14566">
        <ele>158</ele>
        <time>2021-01-20T20:48:47Z</time>
      </trkpt>
      <trkpt lat="44.45979" lon="1.14546">
        <ele>164</ele>
        <time>2021-01-20T20:49:13Z</time>
      </trkpt>
      <trkpt lat="44.45943" lon="1.14543">
        <ele>167</ele>
        <time>2021-01-20T20:49:42Z</time>
      </trkpt>
      <trkpt lat="44.4592" lon="1.14541">
        <ele>169</ele>
        <time>2021-01-20T20:50:01Z</time>
      </trkpt>
      <trkpt lat="44.45919" lon="1.14515">
        <ele>174</ele>
        <time>2021-01-20T20:50:16Z</time>
      </trkpt>
      <trkpt lat="44.45908" lon="1.14487">
        <ele>179</ele>
        <time>2021-01-20T20:50:34Z</time>
      </trkpt>
      <trkpt lat="44.45899" lon="1.14468">
        <ele>182</ele>
        <time>2021-01-20T20:50:47Z</time>
      </trkpt>
      <trkpt lat="44.45885" lon="1.14433">
        <ele>186</ele>
        <time>2021-01-20T20:51:10Z</time>
      </trkpt>
      <trkpt lat="44.45872" lon="1.14408">
        <ele>190</ele>
        <time>2021-01-20T20:51:27Z</time>
      </trkpt>
      <trkpt lat="44.45858" lon="1.14386">
        <ele>192</ele>
        <time>2021-01-20T20:51:44Z</time>
      </trkpt>
      <trkpt lat="44.45844" lon="1.14348">
        <ele>197</ele>
        <time>2021-01-20T20:52:09Z</time>
      </trkpt>
      <trkpt lat="44.45836" lon="1.14326">
        <ele>200</ele>
        <time>2021-01-20T20:52:23Z</time>
      </trkpt>
      <trkpt lat="44.4582" lon="1.14298">
        <ele>203</ele>
        <time>2021-01-20T20:52:43Z</time>
      </trkpt>
      <trkpt lat="44.4581" lon="1.14287">
        <ele>204</ele>
        <time>2021-01-20T20:52:54Z</time>
      </trkpt>
      <trkpt lat="44.45787" lon="1.14268">
        <ele>207</ele>
        <time>2021-01-20T20:53:15Z</time>
      </trkpt>
      <trkpt lat="44.45753" lon="1.14246">
        <ele>210</ele>
        <time>2021-01-20T20:53:45Z</time>
      </trkpt>
      <trkpt lat="44.45729" lon="1.14231">
        <ele>211</ele>
        <time>2021-01-20T20:54:06Z</time>
      </trkpt>
      <trkpt lat="44.45702" lon="1.1421">
        <ele>213</ele>
        <time>2021-01-20T20:54:31Z</time>
      </trkpt>
      <trkpt lat="44.45682" lon="1.14188">
        <ele>216</ele>
        <time>2021-01-20T20:54:51Z</time>
      </trkpt>
      <trkpt lat="44.45665" lon="1.14177">
        <ele>219</ele>
        <time>2021-01-20T20:55:06Z</time>
      </trkpt>
      <trkpt lat="44.4564" lon="1.14162">
        <ele>221</ele>
        <time>2021-01-20T20:55:28Z</time>
      </trkpt>
      <trkpt lat="44.45594" lon="1.14147">
        <ele>225</ele>
        <time>2021-01-20T20:56:06Z</time>
      </trkpt>
      <trkpt lat="44.45477" lon="1.14056">
        <ele>235</ele>
        <time>2021-01-20T20:57:53Z</time>
      </trkpt>
      <trkpt lat="44.45438" lon="1.13977">
        <ele>236</ele>
        <time>2021-01-20T20:58:48Z</time>
      </trkpt>
      <trkpt lat="44.45399" lon="1.13849">
        <ele>231</ele>
        <time>2021-01-20T21:00:07Z</time>
      </trkpt>
      <trkpt lat="44.45386" lon="1.1374">
        <ele>231</ele>
        <time>2021-01-20T21:01:10Z</time>
      </trkpt>
      <trkpt lat="44.45367" lon="1.13698">
        <ele>230</ele>
        <time>2021-01-20T21:01:39Z</time>
      </trkpt>
      <trkpt lat="44.45344" lon="1.13694">
        <ele>229</ele>
        <time>2021-01-20T21:01:57Z</time>
      </trkpt>
      <trkpt lat="44.45282" lon="1.13669">
        <ele>230</ele>
        <time>2021-01-20T21:02:49Z</time>
      </trkpt>
      <trkpt lat="44.45236" lon="1.13669">
        <ele>230</ele>
        <time>2021-01-20T21:03:26Z</time>
      </trkpt>
      <trkpt lat="44.45195" lon="1.13673">
        <ele>229</ele>
        <time>2021-01-20T21:03:59Z</time>
      </trkpt>
      <trkpt lat="44.45148" lon="1.13655">
        <ele>231</ele>
        <time>2021-01-20T21:04:38Z</time>
      </trkpt>
      <trkpt lat="44.45099" lon="1.13655">
        <ele>232</ele>
        <time>2021-01-20T21:05:17Z</time>
      </trkpt>
      <trkpt lat="44.4505" lon="1.13655">
        <ele>232</ele>
        <time>2021-01-20T21:05:56Z</time>
      </trkpt>
      <trkpt lat="44.45004" lon="1.13633">
        <ele>231</ele>
        <time>2021-01-20T21:06:35Z</time>
      </trkpt>
      <trkpt lat="44.44963" lon="1.13619">
        <ele>231</ele>
        <time>2021-01-20T21:07:09Z</time>
      </trkpt>
      <trkpt lat="44.44924" lon="1.13611">
        <ele>232</ele>
        <time>2021-01-20T21:07:40Z</time>
      </trkpt>
      <trkpt lat="44.44883" lon="1.13586">
        <ele>233</ele>
        <time>2021-01-20T21:08:16Z</time>
      </trkpt>
      <trkpt lat="44.44821" lon="1.13518">
        <ele>237</ele>
        <time>2021-01-20T21:09:19Z</time>
      </trkpt>
      <trkpt lat="44.448" lon="1.1338">
        <ele>239</ele>
        <time>2021-01-20T21:10:40Z</time>
      </trkpt>
      <trkpt lat="44.44764" lon="1.13261">
        <ele>238</ele>
        <time>2021-01-20T21:11:54Z</time>
      </trkpt>
      <trkpt lat="44.44718" lon="1.13204">
        <ele>232</ele>
        <time>2021-01-20T21:12:43Z</time>
      </trkpt>
      <trkpt lat="44.44654" lon="1.13092">
        <ele>228</ele>
        <time>2021-01-20T21:14:05Z</time>
      </trkpt>
      <trkpt lat="44.4462" lon="1.13016">
        <ele>228</ele>
        <time>2021-01-20T21:14:56Z</time>
      </trkpt>
      <trkpt lat="44.44574" lon="1.12868">
        <ele>237</ele>
        <time>2021-01-20T21:16:29Z</time>
      </trkpt>
      <trkpt lat="44.44538" lon="1.12745">
        <ele>241</ele>
        <time>2021-01-20T21:17:45Z</time>
      </trkpt>
      <trkpt lat="44.44502" lon="1.12605">
        <ele>239</ele>
        <time>2021-01-20T21:19:10Z</time>
      </trkpt>
      <trkpt lat="44.44486" lon="1.12475">
        <ele>239</ele>
        <time>2021-01-20T21:20:25Z</time>
      </trkpt>
      <trkpt lat="44.44478" lon="1.1233">
        <ele>245</ele>
        <time>2021-01-20T21:21:48Z</time>
      </trkpt>
      <trkpt lat="44.4444" lon="1.12226">
        <ele>251</ele>
        <time>2021-01-20T21:22:55Z</time>
      </trkpt>
      <trkpt lat="44.44414" lon="1.12175">
        <ele>253</ele>
        <time>2021-01-20T21:23:31Z</time>
      </trkpt>
      <trkpt lat="44.44391" lon="1.12197">
        <ele>250</ele>
        <time>2021-01-20T21:23:53Z</time>
      </trkpt>
      <trkpt lat="44.44362" lon="1.12161">
        <ele>251</ele>
        <time>2021-01-20T21:24:24Z</time>
      </trkpt>
      <trkpt lat="44.44339" lon="1.12132">
        <ele>253</ele>
        <time>2021-01-20T21:24:49Z</time>
      </trkpt>
      <trkpt lat="44.44265" lon="1.12117">
        <ele>249</ele>
        <time>2021-01-20T21:25:49Z</time>
      </trkpt>
      <trkpt lat="44.44223" lon="1.12154">
        <ele>242</ele>
        <time>2021-01-20T21:26:28Z</time>
      </trkpt>
      <trkpt lat="44.44192" lon="1.12193">
        <ele>237</ele>
        <time>2021-01-20T21:27:02Z</time>
      </trkpt>
      <trkpt lat="44.44136" lon="1.12211">
        <ele>233</ele>
        <time>2021-01-20T21:27:48Z</time>
      </trkpt>
      <trkpt lat="44.44097" lon="1.12218">
        <ele>231</ele>
        <time>2021-01-20T21:28:19Z</time>
      </trkpt>
      <trkpt lat="44.44061" lon="1.12233">
        <ele>230</ele>
        <time>2021-01-20T21:28:49Z</time>
      </trkpt>
      <trkpt lat="44.44015" lon="1.12215">
        <ele>233</ele>
        <time>2021-01-20T21:29:28Z</time>
      </trkpt>
      <trkpt lat="44.43955" lon="1.12237">
        <ele>232</ele>
        <time>2021-01-20T21:30:17Z</time>
      </trkpt>
      <trkpt lat="44.4393" lon="1.1225">
        <ele>232</ele>
        <time>2021-01-20T21:30:39Z</time>
      </trkpt>
      <trkpt lat="44.43909" lon="1.12278">
        <ele>230</ele>
        <time>2021-01-20T21:31:02Z</time>
      </trkpt>
      <trkpt lat="44.4389" lon="1.12295">
        <ele>228</ele>
        <time>2021-01-20T21:31:20Z</time>
      </trkpt>
      <trkpt lat="44.4386" lon="1.12314">
        <ele>227</ele>
        <time>2021-01-20T21:31:46Z</time>
      </trkpt>
      <trkpt lat="44.43832" lon="1.12324">
        <ele>227</ele>
        <time>2021-01-20T21:32:09Z</time>
      </trkpt>
      <trkpt lat="44.43808" lon="1.12332">
        <ele>228</ele>
        <time>2021-01-20T21:32:29Z</time>
      </trkpt>
      <trkpt lat="44.43779" lon="1.12335">
        <ele>228</ele>
        <time>2021-01-20T21:32:52Z</time>
      </trkpt>
      <trkpt lat="44.43759" lon="1.12341">
        <ele>227</ele>
        <time>2021-01-20T21:33:09Z</time>
      </trkpt>
      <trkpt lat="44.4372" lon="1.12351">
        <ele>226</ele>
        <time>2021-01-20T21:33:41Z</time>
      </trkpt>
      <trkpt lat="44.43701" lon="1.12363">
        <ele>225</ele>
        <time>2021-01-20T21:33:57Z</time>
      </trkpt>
      <trkpt lat="44.43681" lon="1.12392">
        <ele>229</ele>
        <time>2021-01-20T21:34:20Z</time>
      </trkpt>
      <trkpt lat="44.43662" lon="1.12416">
        <ele>233</ele>
        <time>2021-01-20T21:34:41Z</time>
      </trkpt>
      <trkpt lat="44.43645" lon="1.12426">
        <ele>230</ele>
        <time>2021-01-20T21:34:56Z</time>
      </trkpt>
      <trkpt lat="44.43617" lon="1.12463">
        <ele>228</ele>
        <time>2021-01-20T21:35:26Z</time>
      </trkpt>
      <trkpt lat="44.43596" lon="1.12479">
        <ele>228</ele>
        <time>2021-01-20T21:35:45Z</time>
      </trkpt>
      <trkpt lat="44.43583" lon="1.12521">
        <ele>230</ele>
        <time>2021-01-20T21:36:12Z</time>
      </trkpt>
      <trkpt lat="44.43581" lon="1.12562">
        <ele>230</ele>
        <time>2021-01-20T21:36:35Z</time>
      </trkpt>
      <trkpt lat="44.43579" lon="1.12615">
        <ele>227</ele>
        <time>2021-01-20T21:37:06Z</time>
      </trkpt>
      <trkpt lat="44.43551" lon="1.12706">
        <ele>208</ele>
        <time>2021-01-20T21:38:02Z</time>
      </trkpt>
      <trkpt lat="44.43534" lon="1.12731">
        <ele>200</ele>
        <time>2021-01-20T21:38:22Z</time>
      </trkpt>
      <trkpt lat="44.43515" lon="1.12773">
        <ele>191</ele>
        <time>2021-01-20T21:38:50Z</time>
      </trkpt>
      <trkpt lat="44.43498" lon="1.12817">
        <ele>185</ele>
        <time>2021-01-20T21:39:19Z</time>
      </trkpt>
      <trkpt lat="44.43487" lon="1.12847">
        <ele>180</ele>
        <time>2021-01-20T21:39:38Z</time>
      </trkpt>
      <trkpt lat="44.43484" lon="1.12882">
        <ele>177</ele>
        <time>2021-01-20T21:39:58Z</time>
      </trkpt>
      <trkpt lat="44.43465" lon="1.12891">
        <ele>173</ele>
        <time>2021-01-20T21:40:14Z</time>
      </trkpt>
      <trkpt lat="44.43457" lon="1.12872">
        <ele>173</ele>
        <time>2021-01-20T21:40:27Z</time>
      </trkpt>
      <trkpt lat="44.43445" lon="1.12876">
        <ele>170</ele>
        <time>2021-01-20T21:40:37Z</time>
      </trkpt>
      <trkpt lat="44.43436" lon="1.12898">
        <ele>168</ele>
        <time>2021-01-20T21:40:51Z</time>
      </trkpt>
      <trkpt lat="44.43423" lon="1.12902">
        <ele>166</ele>
        <time>2021-01-20T21:41:02Z</time>
      </trkpt>
      <trkpt lat="44.43418" lon="1.1293">
        <ele>165</ele>
        <time>2021-01-20T21:41:19Z</time>
      </trkpt>
      <trkpt lat="44.43417" lon="1.12965">
        <ele>163</ele>
        <time>2021-01-20T21:41:39Z</time>
      </trkpt>
      <trkpt lat="44.43415" lon="1.12993">
        <ele>162</ele>
        <time>2021-01-20T21:41:55Z</time>
      </trkpt>
      <trkpt lat="44.4341" lon="1.13013">
        <ele>160</ele>
        <time>2021-01-20T21:42:07Z</time>
      </trkpt>
      <trkpt lat="44.43408" lon="1.13029">
        <ele>158</ele>
        <time>2021-01-20T21:42:16Z</time>
      </trkpt>
      <trkpt lat="44.43395" lon="1.13041">
        <ele>156</ele>
        <time>2021-01-20T21:42:29Z</time>
      </trkpt>
      <trkpt lat="44.43372" lon="1.13073">
        <ele>152</ele>
        <time>2021-01-20T21:42:55Z</time>
      </trkpt>
      <trkpt lat="44.43358" lon="1.13091">
        <ele>149</ele>
        <time>2021-01-20T21:43:10Z</time>
      </trkpt>
      <trkpt lat="44.43348" lon="1.13112">
        <ele>147</ele>
        <time>2021-01-20T21:43:24Z</time>
      </trkpt>
      <trkpt lat="44.43339" lon="1.13118">
        <ele>146</ele>
        <time>2021-01-20T21:43:32Z</time>
      </trkpt>
      <trkpt lat="44.43369" lon="1.13138">
        <ele>146</ele>
        <time>2021-01-20T21:43:59Z</time>
      </trkpt>
      <trkpt lat="44.43394" lon="1.13179">
        <ele>145</ele>
        <time>2021-01-20T21:44:30Z</time>
      </trkpt>
      <trkpt lat="44.43413" lon="1.13228">
        <ele>142</ele>
        <time>2021-01-20T21:45:01Z</time>
      </trkpt>
      <trkpt lat="44.4344" lon="1.13257">
        <ele>141</ele>
        <time>2021-01-20T21:45:29Z</time>
      </trkpt>
      <trkpt lat="44.43467" lon="1.13283">
        <ele>138</ele>
        <time>2021-01-20T21:45:55Z</time>
      </trkpt>
      <trkpt lat="44.43502" lon="1.13294">
        <ele>137</ele>
        <time>2021-01-20T21:46:24Z</time>
      </trkpt>
      <trkpt lat="44.43525" lon="1.13318">
        <ele>134</ele>
        <time>2021-01-20T21:46:47Z</time>
      </trkpt>
      <trkpt lat="44.43513" lon="1.13391">
        <ele>130</ele>
        <time>2021-01-20T21:47:29Z</time>
      </trkpt>
      <trkpt lat="44.43494" lon="1.13447">
        <ele>130</ele>
        <time>2021-01-20T21:48:05Z</time>
      </trkpt>
      <trkpt lat="44.4349" lon="1.1347">
        <ele>130</ele>
        <time>2021-01-20T21:48:18Z</time>
      </trkpt>
      <trkpt lat="44.43466" lon="1.13454">
        <ele>132</ele>
        <time>2021-01-20T21:48:40Z</time>
      </trkpt>
      <trkpt lat="44.43447" lon="1.13446">
        <ele>133</ele>
        <time>2021-01-20T21:48:56Z</time>
      </trkpt>
      <trkpt lat="44.4342" lon="1.1348">
        <ele>134</ele>
        <time>2021-01-20T21:49:25Z</time>
      </trkpt>
      <trkpt lat="44.43392" lon="1.13492">
        <ele>135</ele>
        <time>2021-01-20T21:49:48Z</time>
      </trkpt>
      <trkpt lat="44.43353" lon="1.13513">
        <ele>137</ele>
        <time>2021-01-20T21:50:22Z</time>
      </trkpt>
      <trkpt lat="44.43315" lon="1.1352">
        <ele>139</ele>
        <time>2021-01-20T21:50:52Z</time>
      </trkpt>
      <trkpt lat="44.4326" lon="1.13544">
        <ele>140</ele>
        <time>2021-01-20T21:51:38Z</time>
      </trkpt>
      <trkpt lat="44.43216" lon="1.13579">
        <ele>140</ele>
        <time>2021-01-20T21:52:19Z</time>
      </trkpt>
      <trkpt lat="44.4317" lon="1.13633">
        <ele>138</ele>
        <time>2021-01-20T21:53:07Z</time>
      </trkpt>
      <trkpt lat="44.43133" lon="1.13693">
        <ele>138</ele>
        <time>2021-01-20T21:53:52Z</time>
      </trkpt>
      <trkpt lat="44.43109" lon="1.13723">
        <ele>138</ele>
        <time>2021-01-20T21:54:18Z</time>
      </trkpt>
      <trkpt lat="44.43008" lon="1.13771">
        <ele>144</ele>
        <time>2021-01-20T21:55:43Z</time>
      </trkpt>
      <trkpt lat="44.42986" lon="1.1379">
        <ele>144</ele>
        <time>2021-01-20T21:56:04Z</time>
      </trkpt>
      <trkpt lat="44.42909" lon="1.13865">
        <ele>143</ele>
        <time>2021-01-20T21:57:19Z</time>
      </trkpt>
      <trkpt lat="44.42832" lon="1.13992">
        <ele>141</ele>
        <time>2021-01-20T21:58:54Z</time>
      </trkpt>
      <trkpt lat="44.42799" lon="1.1404">
        <ele>142</ele>
        <time>2021-01-20T21:59:33Z</time>
      </trkpt>
      <trkpt lat="44.42777" lon="1.14056">
        <ele>142</ele>
        <time>2021-01-20T21:59:52Z</time>
      </trkpt>
      <trkpt lat="44.42733" lon="1.1407">
        <ele>144</ele>
        <time>2021-01-20T22:00:29Z</time>
      </trkpt>
      <trkpt lat="44.42672" lon="1.14084">
        <ele>145</ele>
        <time>2021-01-20T22:01:18Z</time>
      </trkpt>
      <trkpt lat="44.42643" lon="1.1409">
        <ele>146</ele>
        <time>2021-01-20T22:01:42Z</time>
      </trkpt>
      <trkpt lat="44.42605" lon="1.14096">
        <ele>149</ele>
        <time>2021-01-20T22:02:12Z</time>
      </trkpt>
      <trkpt lat="44.42562" lon="1.14108">
        <ele>150</ele>
        <time>2021-01-20T22:02:47Z</time>
      </trkpt>
      <trkpt lat="44.42529" lon="1.14115">
        <ele>151</ele>
        <time>2021-01-20T22:03:14Z</time>
      </trkpt>
      <trkpt lat="44.42412" lon="1.14117">
        <ele>154</ele>
        <time>2021-01-20T22:04:48Z</time>
      </trkpt>
      <trkpt lat="44.42349" lon="1.14134">
        <ele>155</ele>
        <time>2021-01-20T22:05:39Z</time>
      </trkpt>
      <trkpt lat="44.42274" lon="1.14178">
        <ele>152</ele>
        <time>2021-01-20T22:06:44Z</time>
      </trkpt>
      <trkpt lat="44.42255" lon="1.14208">
        <ele>150</ele>
        <time>2021-01-20T22:07:07Z</time>
      </trkpt>
      <trkpt lat="44.42251" lon="1.1428">
        <ele>146</ele>
        <time>2021-01-20T22:07:48Z</time>
      </trkpt>
      <trkpt lat="44.42206" lon="1.14325">
        <ele>146</ele>
        <time>2021-01-20T22:08:33Z</time>
      </trkpt>
      <trkpt lat="44.42147" lon="1.14357">
        <ele>147</ele>
        <time>2021-01-20T22:09:23Z</time>
      </trkpt>
      <trkpt lat="44.42087" lon="1.14368">
        <ele>148</ele>
        <time>2021-01-20T22:10:12Z</time>
      </trkpt>
      <trkpt lat="44.42058" lon="1.14366">
        <ele>149</ele>
        <time>2021-01-20T22:10:35Z</time>
      </trkpt>
      <trkpt lat="44.42023" lon="1.14356">
        <ele>150</ele>
        <time>2021-01-20T22:11:04Z</time>
      </trkpt>
      <trkpt lat="44.42015" lon="1.14356">
        <ele>150</ele>
        <time>2021-01-20T22:11:10Z</time>
      </trkpt>
      <trkpt lat="44.42004" lon="1.14354">
        <ele>151</ele>
        <time>2021-01-20T22:11:19Z</time>
      </trkpt>
      <trkpt lat="44.41971" lon="1.14366">
        <ele>150</ele>
        <time>2021-01-20T22:11:46Z</time>
      </trkpt>
      <trkpt lat="44.41924" lon="1.14457">
        <ele>150</ele>
        <time>2021-01-20T22:12:50Z</time>
      </trkpt>
      <trkpt lat="44.41869" lon="1.14421">
        <ele>149</ele>
        <time>2021-01-20T22:13:39Z</time>
      </trkpt>
      <trkpt lat="44.41802" lon="1.14289">
        <ele>152</ele>
        <time>2021-01-20T22:15:12Z</time>
      </trkpt>
      <trkpt lat="44.41691" lon="1.14083">
        <ele>160</ele>
        <time>2021-01-20T22:17:39Z</time>
      </trkpt>
      <trkpt lat="44.41474" lon="1.14174">
        <ele>156</ele>
        <time>2021-01-20T22:20:41Z</time>
      </trkpt>
      <trkpt lat="44.41296" lon="1.14203">
        <ele>159</ele>
        <time>2021-01-20T22:23:04Z</time>
      </trkpt>
      <trkpt lat="44.41193" lon="1.14272">
        <ele>160</ele>
        <time>2021-01-20T22:24:35Z</time>
      </trkpt>
      <trkpt lat="44.41126" lon="1.14358">
        <ele>161</ele>
        <time>2021-01-20T22:25:48Z</time>
      </trkpt>
      <trkpt lat="44.4111" lon="1.14416">
        <ele>162</ele>
        <time>2021-01-20T22:26:24Z</time>
      </trkpt>
      <trkpt lat="44.41105" lon="1.14492">
        <ele>164</ele>
        <time>2021-01-20T22:27:07Z</time>
      </trkpt>
      <trkpt lat="44.41133" lon="1.14528">
        <ele>167</ele>
        <time>2021-01-20T22:27:38Z</time>
      </trkpt>
      <trkpt lat="44.41224" lon="1.14514">
        <ele>170</ele>
        <time>2021-01-20T22:28:51Z</time>
      </trkpt>
      <trkpt lat="44.41301" lon="1.14535">
        <ele>172</ele>
        <time>2021-01-20T22:29:54Z</time>
      </trkpt>
      <trkpt lat="44.41378" lon="1.14582">
        <ele>173</ele>
        <time>2021-01-20T22:31:01Z</time>
      </trkpt>
      <trkpt lat="44.4144" lon="1.14719">
        <ele>176</ele>
        <time>2021-01-20T22:32:34Z</time>
      </trkpt>
      <trkpt lat="44.41474" lon="1.14882">
        <ele>179</ele>
        <time>2021-01-20T22:34:11Z</time>
      </trkpt>
      <trkpt lat="44.41499" lon="1.14976">
        <ele>178</ele>
        <time>2021-01-20T22:35:09Z</time>
      </trkpt>
      <trkpt lat="44.41461" lon="1.1499">
        <ele>180</ele>
        <time>2021-01-20T22:35:40Z</time>
      </trkpt>
      <trkpt lat="44.41432" lon="1.15062">
        <ele>177</ele>
        <time>2021-01-20T22:36:27Z</time>
      </trkpt>
      <trkpt lat="44.41432" lon="1.15116">
        <ele>176</ele>
        <time>2021-01-20T22:36:58Z</time>
      </trkpt>
      <trkpt lat="44.41425" lon="1.15145">
        <ele>177</ele>
        <time>2021-01-20T22:37:16Z</time>
      </trkpt>
      <trkpt lat="44.41502" lon="1.15253">
        <ele>185</ele>
        <time>2021-01-20T22:38:43Z</time>
      </trkpt>
      <trkpt lat="44.4155" lon="1.15361">
        <ele>193</ele>
        <time>2021-01-20T22:39:56Z</time>
      </trkpt>
      <trkpt lat="44.4158" lon="1.15422">
        <ele>191</ele>
        <time>2021-01-20T22:40:38Z</time>
      </trkpt>
      <trkpt lat="44.41608" lon="1.15512">
        <ele>185</ele>
        <time>2021-01-20T22:41:34Z</time>
      </trkpt>
      <trkpt lat="44.41629" lon="1.15723">
        <ele>178</ele>
        <time>2021-01-20T22:43:36Z</time>
      </trkpt>
      <trkpt lat="44.41629" lon="1.15723">
        <ele>178</ele>
        <time>2021-01-20T22:43:36Z</time>
      </trkpt>
    </trkseg>
  </trk>
</gpx>